Terminal Aerodrome Forecast
Issued by NWS

Home | Current Version | Previous Version | Graphics & Text | Print | Product List | Glossary On
Versions: 1 2 3 4 5 6 7 8 9 10 11 12 13 14
438
FTUS43 KMPX 211738
TAFAXN
TAF
KAXN 211738Z 2118/2218 31015G23KT P6SM VCSH OVC012
     FM212000 30015G24KT P6SM VCSH OVC015
     FM220000 30013KT P6SM VCSH OVC040
     FM220200 29009KT P6SM VCSH BKN030
     FM220300 28006KT P6SM BKN040
     FM221400 31009KT P6SM BKN080=

USA.gov is the U.S. government's official web portal to all federal, state and local government web resources and services.